Time;durP1;ratioP1;P1;durP2;ratioP2;P2;SDS_P1;SDS_P2;PMS_P1;PMS_P2;Temp;Humidity;BMP_temperature;BMP_pressure;BME280_temperature;BME280_humidity;BME280_pressure;Samples;Min_cycle;Max_cycle;Signal;HPM_P1;HPM_P2
2023/08/04 00:00:18;;;;;;;0.85;0.70;;;17.00;99.90;;;;;;5002778;28;20763;-38
2023/08/04 00:02:44;;;;;;;1.65;0.80;;;17.00;99.90;;;;;;4999841;28;20026;-40
2023/08/04 00:05:09;;;;;;;1.00;0.80;;;17.10;99.90;;;;;;5004959;28;20038;-41
2023/08/04 00:07:36;;;;;;;1.30;0.60;;;17.10;99.90;;;;;;5004125;28;20042;-41
2023/08/04 00:10:03;;;;;;;1.38;0.70;;;17.10;99.90;;;;;;4999345;28;20390;-39
2023/08/04 00:12:30;;;;;;;0.68;0.68;;;17.10;99.90;;;;;;5009339;28;20763;-40
2023/08/04 00:14:55;;;;;;;0.70;0.70;;;17.10;99.90;;;;;;4994586;28;20061;-42
2023/08/04 00:17:21;;;;;;;1.70;0.70;;;17.00;99.90;;;;;;5008195;28;20080;-37
2023/08/04 00:19:47;;;;;;;2.53;0.70;;;17.00;99.90;;;;;;5000875;28;20026;-31
2023/08/04 00:22:12;;;;;;;0.73;0.60;;;17.00;99.90;;;;;;5008345;28;20026;-31
2023/08/04 00:24:38;;;;;;;0.98;0.80;;;16.90;99.90;;;;;;5008805;28;20104;-31
2023/08/04 00:27:04;;;;;;;1.95;0.70;;;16.90;99.90;;;;;;5005408;28;20031;-32
2023/08/04 00:29:29;;;;;;;1.33;0.70;;;16.90;99.90;;;;;;4996125;28;20104;-31
2023/08/04 00:31:55;;;;;;;0.95;0.60;;;16.90;99.90;;;;;;5004377;28;20041;-31
2023/08/04 00:34:21;;;;;;;2.15;0.70;;;16.90;99.90;;;;;;5007238;28;20070;-31
2023/08/04 00:36:47;;;;;;;0.85;0.80;;;16.90;99.90;;;;;;5010853;28;20021;-31
2023/08/04 00:39:16;;;;;;;1.40;0.77;;;16.90;99.90;;;;;;5005519;28;20616;-31
2023/08/04 00:41:42;;;;;;;3.42;0.80;;;16.80;99.90;;;;;;5008865;28;20025;-31
2023/08/04 00:44:08;;;;;;;0.80;0.80;;;16.90;99.90;;;;;;5013850;28;20399;-31
2023/08/04 00:46:35;;;;;;;0.82;0.70;;;16.90;99.90;;;;;;5005055;28;20073;-32
2023/08/04 00:49:02;;;;;;;1.05;0.80;;;16.80;99.90;;;;;;5012113;28;20034;-34
2023/08/04 00:51:30;;;;;;;0.80;0.80;;;16.80;99.90;;;;;;5008427;28;20038;-31
2023/08/04 00:53:56;;;;;;;1.20;0.73;;;16.80;99.90;;;;;;5006966;28;20033;-34
2023/08/04 00:56:21;;;;;;;2.08;0.95;;;16.80;99.90;;;;;;5014319;28;20037;-31
2023/08/04 00:58:47;;;;;;;0.52;0.50;;;16.80;99.90;;;;;;5004266;28;20037;-32
2023/08/04 01:01:13;;;;;;;1.02;0.93;;;16.90;99.90;;;;;;5005513;28;20045;-33
2023/08/04 01:03:40;;;;;;;3.65;1.45;;;16.70;99.90;;;;;;5003306;28;20169;-31
2023/08/04 01:06:33;;;;;;;0.80;0.80;;;16.70;99.90;;;;;;4992997;28;20044;-33
2023/08/04 01:09:36;;;;;;;1.67;0.73;;;16.70;99.90;;;;;;5005304;28;20049;-32
2023/08/04 01:12:14;;;;;;;0.77;0.77;;;16.70;99.90;;;;;;4999999;28;20036;-33
2023/08/04 01:14:43;;;;;;;0.65;0.63;;;16.60;99.90;;;;;;5010495;28;20034;-31
2023/08/04 01:17:26;;;;;;;1.10;0.80;;;16.50;99.90;;;;;;5010381;28;20414;-31
2023/08/04 01:19:52;;;;;;;1.40;1.08;;;16.60;99.90;;;;;;4998149;28;20038;-33
2023/08/04 01:22:19;;;;;;;2.30;1.20;;;16.50;99.90;;;;;;5008139;28;20037;-32
2023/08/04 01:24:45;;;;;;;1.70;1.08;;;16.60;99.90;;;;;;5005488;28;20056;-30
2023/08/04 01:27:17;;;;;;;2.63;0.95;;;16.50;99.90;;;;;;5008364;28;20475;-31
2023/08/04 01:29:44;;;;;;;1.25;0.75;;;16.50;99.90;;;;;;5004909;28;20034;-33
2023/08/04 01:32:11;;;;;;;1.60;1.00;;;16.60;99.90;;;;;;5014466;28;20048;-32
2023/08/04 01:34:36;;;;;;;2.05;1.10;;;16.60;99.90;;;;;;5003980;28;20036;-32
2023/08/04 01:37:02;;;;;;;0.82;0.73;;;16.60;99.90;;;;;;5009137;28;20105;-34
2023/08/04 01:39:28;;;;;;;2.58;1.00;;;16.60;99.90;;;;;;5003637;28;20076;-33
2023/08/04 01:41:53;;;;;;;1.92;1.10;;;16.60;99.90;;;;;;4998527;28;20058;-36
2023/08/04 01:44:19;;;;;;;0.82;0.82;;;16.60;99.90;;;;;;4995858;28;20499;-34
2023/08/04 01:46:45;;;;;;;1.02;0.65;;;16.60;99.90;;;;;;5001296;28;20568;-32
2023/08/04 01:49:10;;;;;;;0.70;0.70;;;16.70;99.90;;;;;;4989967;28;20490;-33
2023/08/04 01:51:36;;;;;;;1.55;0.98;;;16.70;99.90;;;;;;5002111;28;20081;-32
2023/08/04 01:54:02;;;;;;;0.95;0.93;;;16.70;99.90;;;;;;5011539;28;20045;-35
2023/08/04 01:56:27;;;;;;;0.80;0.80;;;16.70;99.90;;;;;;5005019;28;20030;-34
2023/08/04 01:58:53;;;;;;;6.10;1.60;;;16.70;99.90;;;;;;4996480;28;20053;-33
2023/08/04 02:01:20;;;;;;;2.67;1.00;;;16.60;99.90;;;;;;5008243;28;20042;-36
2023/08/04 02:03:45;;;;;;;2.45;0.90;;;16.50;99.90;;;;;;5010886;28;20034;-34
2023/08/04 02:06:11;;;;;;;1.65;1.30;;;16.50;99.90;;;;;;5000945;28;20096;-34
2023/08/04 02:08:37;;;;;;;1.27;0.80;;;16.50;99.90;;;;;;4997092;28;20026;-32
2023/08/04 02:11:02;;;;;;;1.73;0.85;;;16.60;99.90;;;;;;5008208;28;20045;-39
2023/08/04 02:13:28;;;;;;;2.13;0.90;;;16.50;99.90;;;;;;4999879;28;20030;-41
2023/08/04 02:15:54;;;;;;;1.48;1.00;;;16.60;99.90;;;;;;5006838;28;20483;-40
2023/08/04 02:18:19;;;;;;;1.10;1.00;;;16.60;99.90;;;;;;4999437;28;20075;-40
2023/08/04 02:20:45;;;;;;;2.28;0.88;;;16.60;99.90;;;;;;5001956;28;20014;-41
2023/08/04 02:23:10;;;;;;;1.77;0.95;;;16.60;99.90;;;;;;5008377;28;20026;-42
2023/08/04 02:25:36;;;;;;;4.50;1.00;;;16.60;99.90;;;;;;5003815;28;20133;-42
2023/08/04 02:28:02;;;;;;;1.23;0.95;;;16.60;99.90;;;;;;5004162;28;20695;-40
2023/08/04 02:30:28;;;;;;;1.27;0.80;;;16.60;99.90;;;;;;5003089;28;20174;-39
2023/08/04 02:32:54;;;;;;;0.93;0.73;;;16.60;99.90;;;;;;5003895;28;20034;-40
2023/08/04 02:35:19;;;;;;;1.70;0.85;;;16.60;99.90;;;;;;5003638;28;20030;-40
2023/08/04 02:37:46;;;;;;;1.67;0.88;;;16.50;99.90;;;;;;5003220;28;20076;-41
2023/08/04 02:40:12;;;;;;;1.75;1.00;;;16.40;99.90;;;;;;5002328;28;20018;-40
2023/08/04 02:42:37;;;;;;;2.13;1.10;;;16.40;99.90;;;;;;5004782;28;20038;-41
2023/08/04 02:45:04;;;;;;;1.88;1.00;;;16.40;99.90;;;;;;5003551;28;20042;-38
2023/08/04 02:47:30;;;;;;;1.88;0.88;;;16.40;99.90;;;;;;5002688;28;20030;-40
2023/08/04 02:49:55;;;;;;;2.58;1.05;;;16.50;99.90;;;;;;5000526;28;20035;-41
2023/08/04 02:52:21;;;;;;;0.95;0.88;;;16.50;99.90;;;;;;5003554;28;20065;-38
2023/08/04 02:54:46;;;;;;;0.82;0.82;;;16.40;99.90;;;;;;5002924;28;20410;-41
2023/08/04 02:57:12;;;;;;;1.38;0.90;;;16.40;99.90;;;;;;5004882;28;20031;-41
2023/08/04 02:59:38;;;;;;;1.17;0.80;;;16.30;99.90;;;;;;5007350;28;20044;-41
2023/08/04 03:02:03;;;;;;;2.15;1.00;;;16.30;99.90;;;;;;5004816;28;20813;-39
2023/08/04 03:04:29;;;;;;;1.00;0.90;;;16.40;99.90;;;;;;5001552;28;20045;-40
2023/08/04 03:06:54;;;;;;;0.88;0.88;;;16.40;99.90;;;;;;4993077;28;20029;-38
2023/08/04 03:09:20;;;;;;;2.38;0.75;;;16.40;99.90;;;;;;4986371;28;20083;-40
2023/08/04 03:11:45;;;;;;;1.35;0.88;;;16.30;99.90;;;;;;4997012;28;20030;-40
2023/08/04 03:14:11;;;;;;;1.08;0.90;;;16.40;99.90;;;;;;5005587;28;20544;-39
2023/08/04 03:16:36;;;;;;;2.35;0.77;;;16.40;99.90;;;;;;4996465;28;20023;-38
2023/08/04 03:19:02;;;;;;;1.33;0.80;;;16.40;99.90;;;;;;5006913;28;20168;-35
2023/08/04 03:21:28;;;;;;;1.38;1.02;;;16.40;99.90;;;;;;4998103;28;20045;-40
2023/08/04 03:23:53;;;;;;;1.15;0.80;;;16.40;99.90;;;;;;5000992;28;20103;-41
2023/08/04 03:26:19;;;;;;;1.02;1.00;;;16.40;99.90;;;;;;5009461;28;20033;-41
2023/08/04 03:28:44;;;;;;;1.15;1.02;;;16.40;99.90;;;;;;5003937;28;20519;-41
2023/08/04 03:31:10;;;;;;;1.13;0.80;;;16.40;99.90;;;;;;4989733;28;20144;-39
2023/08/04 03:33:36;;;;;;;3.90;0.90;;;16.30;99.90;;;;;;5001515;28;20621;-42
2023/08/04 03:36:01;;;;;;;0.90;0.90;;;16.30;99.90;;;;;;5001468;28;20041;-40
2023/08/04 03:38:27;;;;;;;1.63;0.90;;;16.40;99.90;;;;;;5000270;28;20364;-39
2023/08/04 03:40:52;;;;;;;1.15;1.00;;;16.40;99.90;;;;;;4998291;28;20021;-42
2023/08/04 03:43:18;;;;;;;1.52;0.82;;;16.40;99.90;;;;;;4999461;28;20038;-38
2023/08/04 03:45:43;;;;;;;1.35;1.25;;;16.40;99.90;;;;;;5005639;28;20030;-38
2023/08/04 03:48:09;;;;;;;1.42;0.82;;;16.40;99.90;;;;;;5004923;28;20038;-39
2023/08/04 03:50:35;;;;;;;1.80;1.10;;;16.30;99.90;;;;;;4999532;28;20105;-42
2023/08/04 03:53:01;;;;;;;2.72;0.75;;;16.30;99.90;;;;;;5002871;28;20022;-40
2023/08/04 03:55:27;;;;;;;1.83;0.80;;;16.20;99.90;;;;;;4999658;28;20029;-40
2023/08/04 03:57:52;;;;;;;1.02;0.98;;;16.20;99.90;;;;;;4985530;28;20021;-41
2023/08/04 04:00:18;;;;;;;0.68;0.68;;;16.20;99.90;;;;;;5002023;28;20392;-39
2023/08/04 04:02:44;;;;;;;1.77;0.90;;;16.20;99.90;;;;;;5000551;28;20041;-36
2023/08/04 04:05:10;;;;;;;0.95;0.95;;;16.20;99.90;;;;;;4993586;28;20030;-41
2023/08/04 04:07:35;;;;;;;0.90;0.90;;;16.30;99.90;;;;;;5000984;28;20395;-42
2023/08/04 04:10:02;;;;;;;3.50;1.00;;;16.20;99.90;;;;;;5005368;28;20457;-39
2023/08/04 04:12:27;;;;;;;2.47;1.00;;;16.20;99.90;;;;;;5004068;28;20095;-41
2023/08/04 04:14:53;;;;;;;1.55;1.05;;;16.20;99.90;;;;;;5004874;28;20034;-39
2023/08/04 04:17:19;;;;;;;1.92;0.70;;;16.10;99.90;;;;;;4991937;28;20384;-39
2023/08/04 04:19:44;;;;;;;2.83;0.80;;;16.10;99.90;;;;;;5004925;28;20118;-36
2023/08/04 04:22:10;;;;;;;1.20;0.80;;;16.20;99.90;;;;;;5011501;28;20030;-41
2023/08/04 04:24:36;;;;;;;0.80;0.75;;;16.10;99.90;;;;;;5004779;28;20041;-39
2023/08/04 04:27:01;;;;;;;1.20;1.10;;;16.20;99.90;;;;;;5010837;28;20162;-37
2023/08/04 04:29:27;;;;;;;1.70;0.90;;;16.20;99.90;;;;;;4999628;28;20422;-38
2023/08/04 04:31:52;;;;;;;1.70;0.90;;;16.20;99.90;;;;;;5003129;28;20515;-37
2023/08/04 04:34:18;;;;;;;1.08;0.88;;;16.10;99.90;;;;;;5001775;28;20030;-41
2023/08/04 04:36:43;;;;;;;1.02;0.93;;;16.10;99.90;;;;;;5003049;28;20027;-41
2023/08/04 04:39:09;;;;;;;0.88;0.88;;;16.10;99.90;;;;;;5003754;28;20109;-41
2023/08/04 04:41:35;;;;;;;0.82;0.82;;;16.10;99.90;;;;;;5006680;28;20022;-41
2023/08/04 04:44:01;;;;;;;1.00;0.90;;;16.00;99.90;;;;;;5003706;28;20040;-39
2023/08/04 04:46:27;;;;;;;1.08;1.05;;;16.00;99.90;;;;;;5005437;28;20030;-40
2023/08/04 04:48:52;;;;;;;0.98;0.90;;;16.00;99.90;;;;;;4986390;28;20120;-44
2023/08/04 04:51:18;;;;;;;3.88;1.17;;;16.00;99.90;;;;;;5012848;28;20501;-40
2023/08/04 04:53:44;;;;;;;2.85;0.80;;;16.00;99.90;;;;;;5002172;28;20539;-37
2023/08/04 04:56:10;;;;;;;0.85;0.77;;;16.00;99.90;;;;;;5001302;28;20507;-41
2023/08/04 04:58:35;;;;;;;2.05;0.90;;;16.10;99.90;;;;;;5010272;28;20106;-42
2023/08/04 05:01:05;;;;;;;3.05;0.90;;;16.10;99.90;;;;;;5012991;28;20034;-32
2023/08/04 05:03:31;;;;;;;0.77;0.70;;;16.00;99.90;;;;;;5001735;28;20072;-31
2023/08/04 05:05:57;;;;;;;0.70;0.70;;;16.10;99.90;;;;;;5010257;28;20031;-31
2023/08/04 05:08:23;;;;;;;2.25;0.90;;;16.10;99.90;;;;;;5006168;28;20593;-34
2023/08/04 05:10:52;;;;;;;2.08;1.30;;;16.10;99.90;;;;;;5002364;28;20372;-30
2023/08/04 05:13:18;;;;;;;1.75;0.88;;;16.10;99.90;;;;;;5015921;28;20116;-31
2023/08/04 05:15:46;;;;;;;1.90;0.90;;;16.10;99.90;;;;;;5006224;28;20200;-32
2023/08/04 05:18:12;;;;;;;1.25;0.90;;;16.10;99.90;;;;;;5007015;28;20030;-31
2023/08/04 05:20:37;;;;;;;0.88;0.70;;;16.20;99.90;;;;;;5007590;28;20032;-31
2023/08/04 05:23:03;;;;;;;0.77;0.70;;;16.10;99.90;;;;;;5006731;28;20419;-32
2023/08/04 05:25:29;;;;;;;0.98;0.80;;;16.10;99.90;;;;;;5006923;28;20034;-32
2023/08/04 05:27:54;;;;;;;1.70;1.10;;;16.10;99.90;;;;;;4965276;28;1205143;-31
2023/08/04 05:30:20;;;;;;;1.27;0.93;;;16.10;99.90;;;;;;5009426;28;20045;-32
2023/08/04 05:32:46;;;;;;;1.15;0.80;;;16.00;99.90;;;;;;5006268;28;20034;-34
2023/08/04 05:35:12;;;;;;;2.28;1.27;;;16.00;99.90;;;;;;5012558;28;20608;-33
2023/08/04 05:37:38;;;;;;;3.28;0.90;;;16.10;99.90;;;;;;5008393;28;20030;-31
2023/08/04 05:40:05;;;;;;;1.15;0.90;;;16.10;99.90;;;;;;5014484;28;20029;-41
2023/08/04 05:42:31;;;;;;;1.00;0.93;;;16.20;99.90;;;;;;5006115;28;20030;-41
2023/08/04 05:44:56;;;;;;;2.10;0.82;;;16.20;99.90;;;;;;5003118;28;20577;-38
2023/08/04 05:47:25;;;;;;;1.80;0.80;;;16.30;99.90;;;;;;5003004;28;20030;-41
2023/08/04 05:49:51;;;;;;;2.13;1.02;;;16.20;99.90;;;;;;5009836;28;20049;-40
2023/08/04 05:52:17;;;;;;;0.93;0.90;;;16.20;99.90;;;;;;4990431;28;20038;-40
2023/08/04 05:54:42;;;;;;;2.33;1.20;;;16.30;99.90;;;;;;4989889;28;20112;-42
2023/08/04 05:57:08;;;;;;;3.15;0.90;;;16.30;99.90;;;;;;5003486;28;20022;-41
2023/08/04 05:59:33;;;;;;;0.95;0.70;;;16.30;99.90;;;;;;5008612;28;20450;-41
2023/08/04 06:01:59;;;;;;;0.80;0.80;;;16.30;99.90;;;;;;4999350;28;20039;-41
2023/08/04 06:04:24;;;;;;;1.75;0.82;;;16.30;99.90;;;;;;5002669;28;20065;-38
2023/08/04 06:06:50;;;;;;;1.63;0.88;;;16.30;99.90;;;;;;5005449;28;20113;-42
2023/08/04 06:09:16;;;;;;;1.33;0.73;;;16.40;99.90;;;;;;5000203;28;20049;-39
2023/08/04 06:11:41;;;;;;;0.75;0.65;;;16.40;99.90;;;;;;5004510;28;20029;-36
2023/08/04 06:14:07;;;;;;;2.05;0.90;;;16.40;99.90;;;;;;5002558;28;20040;-41
2023/08/04 06:16:33;;;;;;;0.70;0.70;;;16.50;99.90;;;;;;5003954;28;20364;-39
2023/08/04 06:18:59;;;;;;;2.85;0.90;;;16.60;99.90;;;;;;4984171;28;20105;-40
2023/08/04 06:21:24;;;;;;;1.23;1.13;;;16.60;99.90;;;;;;5011650;28;20490;-40
2023/08/04 06:23:50;;;;;;;1.30;0.70;;;16.70;99.90;;;;;;5003329;28;20030;-41
2023/08/04 06:26:15;;;;;;;1.15;0.70;;;16.70;99.90;;;;;;5000920;28;20029;-41
2023/08/04 06:28:41;;;;;;;2.13;0.95;;;16.70;99.90;;;;;;5004092;28;20050;-41
2023/08/04 06:31:07;;;;;;;2.70;0.90;;;16.70;99.90;;;;;;5018003;28;20089;-39
2023/08/04 06:33:32;;;;;;;2.83;0.93;;;16.80;99.90;;;;;;5011490;28;20475;-41
2023/08/04 06:35:58;;;;;;;1.95;0.77;;;16.80;99.90;;;;;;5001763;28;20034;-39
2023/08/04 06:38:24;;;;;;;0.65;0.65;;;16.80;99.90;;;;;;5003247;28;20022;-39
2023/08/04 06:40:50;;;;;;;0.70;0.70;;;16.80;99.90;;;;;;5001633;28;20023;-41
2023/08/04 06:43:15;;;;;;;0.60;0.60;;;16.80;99.90;;;;;;5002905;28;20116;-41
2023/08/04 06:45:41;;;;;;;1.15;0.70;;;16.80;99.90;;;;;;5002420;28;20537;-41
2023/08/04 06:48:07;;;;;;;0.63;0.63;;;16.80;99.90;;;;;;5002196;28;20026;-41
2023/08/04 06:50:32;;;;;;;1.15;0.68;;;16.80;99.90;;;;;;4992830;28;20033;-31
2023/08/04 06:52:58;;;;;;;0.60;0.60;;;16.90;99.90;;;;;;5010834;28;20041;-32
2023/08/04 06:55:24;;;;;;;1.27;0.50;;;17.00;99.90;;;;;;5007037;28;20033;-31
2023/08/04 06:57:49;;;;;;;1.20;0.98;;;17.00;99.90;;;;;;5006519;28;20101;-34
2023/08/04 07:00:17;;;;;;;0.68;0.68;;;17.10;99.90;;;;;;5004546;28;20029;-35
2023/08/04 07:02:46;;;;;;;0.60;0.60;;;17.20;99.90;;;;;;5001869;28;20038;-31
2023/08/04 07:05:12;;;;;;;0.60;0.60;;;17.20;99.90;;;;;;5007311;28;20042;-31
2023/08/04 07:07:37;;;;;;;0.93;0.50;;;17.20;99.90;;;;;;5001683;28;20052;-33
2023/08/04 07:10:03;;;;;;;1.25;0.70;;;17.30;99.90;;;;;;4999733;28;20064;-33
2023/08/04 07:12:29;;;;;;;1.15;0.70;;;17.30;99.90;;;;;;5004378;28;20033;-31
2023/08/04 07:14:54;;;;;;;0.70;0.70;;;17.40;99.90;;;;;;5001028;28;20031;-31
2023/08/04 07:17:20;;;;;;;2.17;0.80;;;17.30;99.90;;;;;;5003093;28;21159;-30
2023/08/04 07:19:48;;;;;;;1.30;0.60;;;17.30;99.90;;;;;;5004835;28;20021;-33
2023/08/04 07:22:13;;;;;;;0.60;0.60;;;17.30;99.90;;;;;;5003541;28;20041;-33
2023/08/04 07:24:39;;;;;;;1.35;0.80;;;17.20;99.90;;;;;;5004891;28;20433;-32
2023/08/04 07:27:05;;;;;;;0.70;0.60;;;17.30;99.90;;;;;;5004440;28;20473;-33
2023/08/04 07:29:33;;;;;;;1.52;0.60;;;17.30;99.90;;;;;;5004238;28;20060;-31
2023/08/04 07:31:58;;;;;;;;;;;17.40;99.90;;;;;;5015787;28;20165;-32
2023/08/04 07:34:24;;;;;;;0.60;0.60;;;17.40;99.90;;;;;;5000936;28;19921;-33
2023/08/04 07:36:49;;;;;;;0.50;0.50;;;17.50;99.90;;;;;;5008691;28;20128;-31
2023/08/04 07:39:15;;;;;;;0.60;0.60;;;17.50;99.90;;;;;;5004850;28;20105;-31
2023/08/04 07:41:41;;;;;;;1.98;0.60;;;17.60;99.90;;;;;;5004950;28;20036;-35
2023/08/04 07:44:07;;;;;;;1.55;0.50;;;17.50;99.90;;;;;;5002785;28;20111;-31
2023/08/04 07:46:33;;;;;;;0.60;0.60;;;17.50;99.90;;;;;;5007930;28;20066;-34
2023/08/04 07:48:59;;;;;;;2.33;1.00;;;17.50;99.90;;;;;;5003801;28;20026;-34
2023/08/04 07:51:24;;;;;;;1.05;0.68;;;17.60;99.90;;;;;;4993806;28;20080;-32
2023/08/04 07:53:50;;;;;;;0.52;0.52;;;17.60;99.90;;;;;;5003503;28;20050;-34
2023/08/04 07:56:16;;;;;;;0.50;0.50;;;17.50;99.90;;;;;;5001283;28;20050;-32
2023/08/04 07:58:42;;;;;;;1.33;0.50;;;17.60;99.90;;;;;;5003826;28;20026;-35
2023/08/04 08:01:07;;;;;;;0.50;0.50;;;17.70;99.90;;;;;;4997363;28;20114;-31
2023/08/04 08:03:34;;;;;;;1.45;0.60;;;17.70;99.90;;;;;;5021587;28;20033;-31
2023/08/04 08:06:01;;;;;;;0.38;0.38;;;17.80;99.90;;;;;;4997875;28;20136;-31
2023/08/04 08:08:27;;;;;;;1.90;0.68;;;17.90;99.90;;;;;;5004792;28;20045;-31
2023/08/04 08:10:53;;;;;;;2.10;0.52;;;18.10;99.90;;;;;;5007498;28;20400;-32
2023/08/04 08:13:19;;;;;;;1.13;0.57;;;18.10;99.90;;;;;;5000785;28;20038;-32
2023/08/04 08:15:45;;;;;;;0.75;0.57;;;18.20;99.90;;;;;;5007811;28;20041;-31
2023/08/04 08:18:11;;;;;;;0.60;0.60;;;18.20;99.90;;;;;;5005249;28;20041;-30
2023/08/04 08:20:41;;;;;;;0.30;0.30;;;18.30;99.90;;;;;;5005893;28;20022;-31
2023/08/04 08:23:07;;;;;;;2.33;0.65;;;18.30;99.90;;;;;;5000248;28;20026;-31
2023/08/04 08:25:35;;;;;;;1.70;0.63;;;18.40;99.90;;;;;;5004581;28;20116;-32
2023/08/04 08:28:01;;;;;;;1.95;0.43;;;18.60;99.90;;;;;;5002269;28;20058;-31
2023/08/04 08:30:26;;;;;;;0.98;0.68;;;18.60;99.90;;;;;;5000354;28;20041;-33
2023/08/04 08:32:52;;;;;;;0.60;0.60;;;18.60;99.90;;;;;;5004734;28;20046;-32
2023/08/04 08:35:18;;;;;;;0.52;0.52;;;18.60;99.90;;;;;;5001576;28;20042;-31
2023/08/04 08:37:43;;;;;;;0.50;0.50;;;18.70;99.90;;;;;;5003080;28;20065;-34
2023/08/04 08:40:10;;;;;;;0.50;0.50;;;18.60;99.90;;;;;;5000775;28;20464;-31
2023/08/04 08:42:35;;;;;;;0.55;0.50;;;18.60;99.90;;;;;;5004146;28;20034;-33
2023/08/04 08:45:02;;;;;;;0.60;0.60;;;18.60;99.90;;;;;;4999879;28;20376;-34
2023/08/04 08:47:37;;;;;;;0.77;0.65;;;18.70;99.90;;;;;;5004518;28;20483;-32
2023/08/04 08:50:05;;;;;;;0.73;0.45;;;18.90;99.90;;;;;;5002070;28;20030;-32
2023/08/04 08:52:38;;;;;;;0.57;0.55;;;19.10;99.90;;;;;;4985874;28;20088;-33
2023/08/04 08:55:05;;;;;;;0.70;0.50;;;19.50;99.90;;;;;;5001821;28;20038;-31
2023/08/04 08:57:31;;;;;;;1.17;0.60;;;19.50;99.90;;;;;;5010067;28;20031;-32
2023/08/04 09:00:02;;;;;;;1.60;0.60;;;19.60;99.90;;;;;;5003891;28;20025;-33
2023/08/04 09:02:28;;;;;;;0.50;0.50;;;19.40;99.90;;;;;;5003342;28;20050;-33
2023/08/04 09:04:54;;;;;;;1.33;0.70;;;19.20;99.90;;;;;;5003441;28;20031;-32
2023/08/04 09:07:22;;;;;;;1.25;0.63;;;19.30;99.90;;;;;;5005984;28;20506;-31
2023/08/04 09:09:48;;;;;;;0.65;0.50;;;19.20;99.90;;;;;;5002280;28;20687;-31
2023/08/04 09:12:15;;;;;;;0.50;0.50;;;19.20;99.90;;;;;;5006834;28;20041;-34
2023/08/04 09:14:54;;;;;;;0.90;0.73;;;19.00;99.90;;;;;;5007433;28;20036;-31
2023/08/04 09:17:33;;;;;;;0.40;0.40;;;19.00;99.90;;;;;;5015173;28;20471;-32
2023/08/04 09:20:01;;;;;;;0.43;0.30;;;19.50;99.90;;;;;;5006804;28;20029;-31
2023/08/04 09:22:27;;;;;;;0.85;0.50;;;19.90;99.90;;;;;;5005300;28;20036;-31
2023/08/04 09:24:53;;;;;;;0.68;0.65;;;20.10;99.90;;;;;;5005497;28;20034;-30
2023/08/04 09:27:33;;;;;;;0.73;0.47;;;20.50;99.90;;;;;;5002727;28;20418;-33
2023/08/04 09:30:04;;;;;;;0.65;0.50;;;20.50;99.90;;;;;;4987832;28;20034;-30
2023/08/04 09:32:29;;;;;;;0.73;0.50;;;20.70;99.90;;;;;;5008920;28;20040;-31
2023/08/04 09:35:03;;;;;;;0.50;0.43;;;21.00;99.90;;;;;;5011472;28;20580;-30
2023/08/04 09:37:33;;;;;;;1.13;0.50;;;20.80;99.90;;;;;;5005951;28;20498;-30
2023/08/04 09:40:04;;;;;;;0.52;0.43;;;20.80;99.90;;;;;;5005335;28;20027;-41
2023/08/04 09:42:35;;;;;;;0.30;0.30;;;20.90;99.90;;;;;;5012250;28;20069;-42
2023/08/04 09:45:01;;;;;;;0.43;0.40;;;21.00;99.90;;;;;;5007939;28;20167;-39
2023/08/04 09:47:27;;;;;;;0.85;0.40;;;21.20;99.90;;;;;;5007539;28;20498;-40
2023/08/04 09:49:54;;;;;;;0.30;0.30;;;21.50;99.90;;;;;;5003385;28;20042;-35
2023/08/04 09:52:24;;;;;;;0.73;0.40;;;21.70;99.90;;;;;;5005143;28;20057;-40
2023/08/04 09:54:53;;;;;;;0.40;0.30;;;21.90;99.90;;;;;;5003820;28;20037;-40
2023/08/04 09:57:19;;;;;;;1.60;0.20;;;22.10;99.90;;;;;;4990808;28;20089;-40
2023/08/04 09:59:47;;;;;;;0.85;0.38;;;22.30;99.90;;;;;;5000890;28;20482;-41
2023/08/04 10:02:14;;;;;;;;;;;22.30;99.90;;;;;;5006031;28;20038;-42
2023/08/04 10:04:40;;;;;;;1.10;0.47;;;22.40;99.90;;;;;;5002042;28;19909;-41
2023/08/04 10:07:09;;;;;;;0.52;0.40;;;22.00;99.90;;;;;;5008821;28;20460;-39
2023/08/04 10:09:35;;;;;;;0.32;0.32;;;21.80;99.90;;;;;;4998225;28;20069;-36
2023/08/04 10:12:02;;;;;;;0.50;0.45;;;22.20;99.90;;;;;;5018987;28;20507;-40
2023/08/04 10:14:27;;;;;;;0.30;0.30;;;22.20;99.90;;;;;;5000831;28;20049;-41
2023/08/04 10:16:54;;;;;;;1.00;0.30;;;22.10;99.90;;;;;;5000089;28;20041;-35
2023/08/04 10:19:23;;;;;;;0.70;0.50;;;22.40;99.90;;;;;;5000440;28;20038;-32
2023/08/04 10:21:49;;;;;;;0.85;0.38;;;22.50;99.90;;;;;;5006872;28;20030;-34
2023/08/04 10:24:19;;;;;;;1.23;0.60;;;22.40;99.90;;;;;;4988749;28;20037;-33
2023/08/04 10:26:47;;;;;;;2.13;0.50;;;22.50;99.90;;;;;;4998534;28;20037;-31
2023/08/04 10:29:12;;;;;;;1.67;0.50;;;22.50;99.90;;;;;;5003128;28;20069;-32
2023/08/04 10:31:58;;;;;;;0.32;0.32;;;22.60;99.90;;;;;;4991925;28;20176;-33
2023/08/04 10:34:31;;;;;;;0.40;0.40;;;22.40;99.90;;;;;;5000408;28;20066;-33
2023/08/04 10:37:12;;;;;;;0.88;0.32;;;22.30;99.90;;;;;;4998918;28;20616;-32
2023/08/04 10:39:56;;;;;;;1.10;0.50;;;22.60;99.90;;;;;;5002131;28;20030;-32
2023/08/04 10:42:26;;;;;;;0.95;0.43;;;22.70;99.90;;;;;;5001198;28;20034;-32
2023/08/04 10:44:52;;;;;;;0.60;0.57;;;22.60;99.90;;;;;;5006182;28;20095;-31
2023/08/04 10:47:39;;;;;;;0.40;0.40;;;22.90;99.90;;;;;;4993360;28;20778;-31
2023/08/04 10:50:06;;;;;;;0.95;0.52;;;23.20;99.90;;;;;;5009333;28;20494;-42
2023/08/04 10:52:33;;;;;;;0.93;0.30;;;23.30;99.90;;;;;;5004289;28;20088;-38
2023/08/04 10:54:59;;;;;;;0.40;0.40;;;23.40;99.90;;;;;;4991801;28;20046;-39
2023/08/04 10:57:28;;;;;;;0.38;0.38;;;23.60;99.90;;;;;;5004345;28;20072;-37
2023/08/04 10:59:54;;;;;;;0.40;0.40;;;23.60;99.90;;;;;;5014258;28;20478;-41
2023/08/04 11:02:22;;;;;;;1.02;0.45;;;23.50;99.90;;;;;;5000790;28;20028;-36
2023/08/04 11:04:48;;;;;;;0.40;0.20;;;23.60;99.90;;;;;;5005624;28;20038;-41
2023/08/04 11:07:15;;;;;;;0.52;0.52;;;23.50;99.90;;;;;;5005816;28;20400;-41
2023/08/04 11:09:42;;;;;;;0.57;0.57;;;23.60;99.90;;;;;;5003253;28;20084;-41
2023/08/04 11:12:09;;;;;;;0.55;0.43;;;23.70;99.90;;;;;;5007176;28;20034;-41
2023/08/04 11:14:35;;;;;;;0.52;0.40;;;23.80;99.90;;;;;;4999823;28;20034;-40
2023/08/04 11:17:02;;;;;;;0.40;0.40;;;24.00;99.90;;;;;;5003760;28;20032;-40
2023/08/04 11:19:32;;;;;;;0.55;0.40;;;24.10;99.90;;;;;;4999847;28;20029;-41
2023/08/04 11:22:11;;;;;;;1.02;0.50;;;23.80;99.90;;;;;;5002325;28;20026;-40
2023/08/04 11:24:36;;;;;;;0.82;0.70;;;24.10;99.90;;;;;;5004035;28;20029;-40
2023/08/04 11:27:02;;;;;;;2.60;0.38;;;24.10;99.90;;;;;;5005367;28;20030;-36
2023/08/04 11:29:28;;;;;;;0.57;0.50;;;24.30;99.90;;;;;;5003716;28;20057;-31
2023/08/04 11:31:53;;;;;;;0.32;0.32;;;24.20;99.90;;;;;;4999659;28;20958;-32
2023/08/04 11:34:19;;;;;;;0.95;0.40;;;24.40;99.90;;;;;;4998474;28;20038;-32
2023/08/04 11:36:45;;;;;;;0.57;0.40;;;24.40;99.90;;;;;;5001072;28;20022;-31
2023/08/04 11:39:11;;;;;;;0.57;0.40;;;24.30;99.90;;;;;;5001971;28;20061;-31
2023/08/04 11:41:37;;;;;;;0.60;0.47;;;23.70;99.90;;;;;;4999957;28;20155;-33
2023/08/04 11:44:04;;;;;;;0.75;0.43;;;23.60;99.90;;;;;;4999063;28;20453;-33
2023/08/04 11:46:30;;;;;;;1.13;0.60;;;23.90;99.90;;;;;;5005994;28;20061;-34
2023/08/04 11:48:56;;;;;;;0.57;0.40;;;23.80;99.90;;;;;;5003849;28;20022;-33
2023/08/04 11:51:24;;;;;;;1.42;0.52;;;24.00;99.90;;;;;;5003225;28;20057;-33
2023/08/04 11:53:50;;;;;;;1.20;0.30;;;24.20;99.90;;;;;;5001105;28;20060;-32
2023/08/04 11:56:15;;;;;;;1.05;0.40;;;24.40;99.90;;;;;;5001401;28;20026;-32
2023/08/04 11:58:43;;;;;;;0.40;0.40;;;24.90;99.90;;;;;;5004408;28;20038;-41
2023/08/04 12:01:25;;;;;;;0.73;0.55;;;25.00;99.90;;;;;;5001781;28;20037;-40
2023/08/04 12:03:50;;;;;;;2.83;0.45;;;25.10;99.90;;;;;;5001709;28;20029;-40
2023/08/04 12:06:23;;;;;;;0.90;0.30;;;24.90;99.90;;;;;;5003757;28;20407;-39
2023/08/04 12:08:52;;;;;;;0.30;0.30;;;25.10;99.90;;;;;;5004008;28;20065;-46
2023/08/04 12:11:19;;;;;;;0.50;0.30;;;24.90;99.90;;;;;;4994462;28;20382;-40
2023/08/04 12:13:44;;;;;;;0.77;0.60;;;24.70;99.90;;;;;;4996248;28;20030;-38
2023/08/04 12:16:11;;;;;;;2.53;0.55;;;24.60;99.90;;;;;;5006524;28;20294;-40
2023/08/04 12:18:39;;;;;;;0.60;0.38;;;24.40;99.90;;;;;;4998917;28;20018;-40
2023/08/04 12:21:05;;;;;;;0.75;0.45;;;24.30;99.90;;;;;;5003960;28;20042;-38
2023/08/04 12:23:30;;;;;;;0.40;0.40;;;24.40;99.90;;;;;;5002002;28;20037;-40
2023/08/04 12:25:56;;;;;;;0.47;0.32;;;24.40;99.90;;;;;;5004069;28;20034;-40
2023/08/04 12:28:22;;;;;;;1.02;0.40;;;24.20;99.90;;;;;;5004440;28;20049;-39
2023/08/04 12:30:48;;;;;;;1.45;0.60;;;24.20;99.90;;;;;;5010207;28;20641;-40
2023/08/04 12:33:14;;;;;;;1.08;0.60;;;24.00;99.90;;;;;;5002409;28;20038;-40
2023/08/04 12:35:40;;;;;;;2.28;0.60;;;23.80;99.90;;;;;;5001846;28;20030;-40
2023/08/04 12:38:05;;;;;;;0.32;0.32;;;23.70;99.90;;;;;;5007940;28;20026;-39
2023/08/04 12:40:35;;;;;;;0.50;0.50;;;23.70;99.90;;;;;;5001941;28;20037;-40
2023/08/04 12:43:01;;;;;;;0.77;0.50;;;23.70;99.90;;;;;;5007413;28;20033;-35
2023/08/04 12:45:29;;;;;;;1.85;0.40;;;23.60;99.90;;;;;;5006931;28;20034;-39